Time;durP1;ratioP1;P1;durP2;ratioP2;P2;SDS_P1;SDS_P2;PMS_P1;PMS_P2;Temp;Humidity;BMP_temperature;BMP_pressure;BME280_temperature;BME280_humidity;BME280_pressure;Samples;Min_cycle;Max_cycle;Signal;HPM_P1;HPM_P2
2022/05/21 00:00:11;;;;;;;5.03;3.27;;;;;;;;;;517956;28;1189;-85
2022/05/21 00:00:28;;;;;;;4.15;3.30;;;;;;;;;;518113;28;1405;-85
2022/05/21 00:00:43;;;;;;;3.72;3.20;;;;;;;;;;516149;28;1581;-85
2022/05/21 00:00:59;;;;;;;3.95;3.28;;;;;;;;;;516259;28;1188;-85
2022/05/21 00:01:14;;;;;;;4.20;3.63;;;;;;;;;;515784;28;1539;-85
2022/05/21 00:01:30;;;;;;;4.68;3.67;;;;;;;;;;515576;28;1275;-84
2022/05/21 00:01:46;;;;;;;4.72;3.42;;;;;;;;;;513434;28;1388;-83
2022/05/21 00:02:03;;;;;;;4.47;3.50;;;;;;;;;;515229;28;1333;-84
2022/05/21 00:02:18;;;;;;;5.57;3.55;;;;;;;;;;517164;28;1215;-84
2022/05/21 00:02:34;;;;;;;6.32;3.42;;;;;;;;;;517063;28;1510;-83
2022/05/21 00:02:50;;;;;;;4.97;3.40;;;;;;;;;;515190;28;1301;-85
2022/05/21 00:03:06;;;;;;;5.40;3.33;;;;;;;;;;515305;28;1326;-85
2022/05/21 00:03:21;;;;;;;5.03;3.40;;;;;;;;;;513585;28;1180;-85
2022/05/21 00:03:36;;;;;;;4.85;3.42;;;;;;;;;;511457;28;1197;-84
2022/05/21 00:03:52;;;;;;;4.67;3.20;;;;;;;;;;513603;28;1275;-84
2022/05/21 00:04:07;;;;;;;4.38;2.97;;;;;;;;;;513596;28;1240;-85
2022/05/21 00:04:23;;;;;;;3.97;3.00;;;;;;;;;;513555;28;1222;-84
2022/05/21 00:04:41;;;;;;;3.80;3.03;;;;;;;;;;513815;28;865;-85
2022/05/21 00:04:57;;;;;;;4.47;3.03;;;;;;;;;;514993;28;1741;-85
2022/05/21 00:05:14;;;;;;;4.55;3.20;;;;;;;;;;516563;28;1305;-85
2022/05/21 00:05:31;;;;;;;4.35;3.15;;;;;;;;;;518693;28;1471;-85
2022/05/21 00:05:46;;;;;;;4.50;3.10;;;;;;;;;;519934;28;1130;-85
2022/05/21 00:06:02;;;;;;;5.40;3.40;;;;;;;;;;518855;28;1200;-85
2022/05/21 00:06:17;;;;;;;5.70;3.27;;;;;;;;;;521052;28;1074;-85
2022/05/21 00:06:33;;;;;;;5.57;3.10;;;;;;;;;;521708;28;1193;-85
2022/05/21 00:06:48;;;;;;;5.13;3.30;;;;;;;;;;519642;28;1310;-84
2022/05/21 00:07:04;;;;;;;4.38;3.30;;;;;;;;;;519844;28;944;-85
2022/05/21 00:07:19;;;;;;;4.20;3.10;;;;;;;;;;519748;28;1152;-84
2022/05/21 00:07:35;;;;;;;3.78;2.92;;;;;;;;;;519820;28;1478;-85
2022/05/21 00:07:52;;;;;;;4.63;3.20;;;;;;;;;;517988;28;1129;-85
2022/05/21 00:08:08;;;;;;;6.07;3.38;;;;;;;;;;519106;28;1489;-85
2022/05/21 00:08:24;;;;;;;4.97;3.00;;;;;;;;;;517964;28;1087;-85
2022/05/21 00:08:39;;;;;;;4.60;2.90;;;;;;;;;;515760;28;1623;-85
2022/05/21 00:08:55;;;;;;;5.30;3.10;;;;;;;;;;515660;28;1177;-84
2022/05/21 00:09:10;;;;;;;6.70;3.27;;;;;;;;;;518048;28;1170;-85
2022/05/21 00:09:27;;;;;;;5.55;3.20;;;;;;;;;;516247;28;1198;-85
2022/05/21 00:09:42;;;;;;;3.65;3.10;;;;;;;;;;517055;28;885;-85
2022/05/21 00:09:58;;;;;;;4.50;3.20;;;;;;;;;;516581;28;1253;-85
2022/05/21 00:10:15;;;;;;;4.60;3.13;;;;;;;;;;518179;28;810;-85
2022/05/21 00:10:32;;;;;;;5.47;3.10;;;;;;;;;;518135;28;928;-85
2022/05/21 00:10:47;;;;;;;4.95;3.00;;;;;;;;;;518909;28;1343;-84
2022/05/21 00:11:03;;;;;;;4.13;3.07;;;;;;;;;;520946;28;1133;-85
2022/05/21 00:11:19;;;;;;;4.68;3.05;;;;;;;;;;520741;28;1307;-84
2022/05/21 00:11:34;;;;;;;4.57;3.10;;;;;;;;;;522137;28;1529;-84
2022/05/21 00:11:50;;;;;;;4.90;3.20;;;;;;;;;;522257;28;1105;-84
2022/05/21 00:12:06;;;;;;;5.00;3.05;;;;;;;;;;522159;28;1283;-83
2022/05/21 00:12:22;;;;;;;5.28;3.13;;;;;;;;;;519723;28;1330;-84
2022/05/21 00:12:37;;;;;;;5.07;3.00;;;;;;;;;;519818;28;1343;-85
2022/05/21 00:12:54;;;;;;;4.10;2.90;;;;;;;;;;519906;28;1906;-85
2022/05/21 00:13:09;;;;;;;3.92;3.00;;;;;;;;;;518457;28;1383;-84
2022/05/21 00:13:25;;;;;;;4.15;3.00;;;;;;;;;;517882;28;1161;-84
2022/05/21 00:13:40;;;;;;;5.47;2.90;;;;;;;;;;515910;28;1576;-85
2022/05/21 00:13:56;;;;;;;4.93;2.90;;;;;;;;;;517977;28;1168;-84
2022/05/21 00:14:12;;;;;;;3.50;2.90;;;;;;;;;;515820;28;1798;-85
2022/05/21 00:14:27;;;;;;;3.63;2.90;;;;;;;;;;517863;28;1360;-84
2022/05/21 00:14:43;;;;;;;3.80;2.97;;;;;;;;;;517827;28;1232;-84
2022/05/21 00:15:00;;;;;;;4.70;3.35;;;;;;;;;;515879;28;1256;-83
2022/05/21 00:15:19;;;;;;;5.43;3.45;;;;;;;;;;515729;28;1481;-84
2022/05/21 00:15:35;;;;;;;5.20;2.92;;;;;;;;;;515843;28;1340;-84
2022/05/21 00:15:51;;;;;;;3.55;2.78;;;;;;;;;;515900;28;1284;-85
2022/05/21 00:16:06;;;;;;;4.25;3.10;;;;;;;;;;512328;28;1384;-85
2022/05/21 00:16:23;;;;;;;4.93;3.10;;;;;;;;;;514321;28;1293;-84
2022/05/21 00:16:38;;;;;;;4.03;3.00;;;;;;;;;;514168;28;980;-85
2022/05/21 00:16:53;;;;;;;4.03;3.00;;;;;;;;;;515335;28;1169;-84
2022/05/21 00:17:09;;;;;;;4.73;2.97;;;;;;;;;;517233;28;1077;-85
2022/05/21 00:17:25;;;;;;;5.25;2.70;;;;;;;;;;518550;28;1366;-84
2022/05/21 00:17:40;;;;;;;5.60;2.70;;;;;;;;;;520183;28;893;-85
2022/05/21 00:17:55;;;;;;;4.97;2.90;;;;;;;;;;517985;28;1227;-85
2022/05/21 00:18:11;;;;;;;4.53;2.90;;;;;;;;;;518329;28;1257;-84
2022/05/21 00:18:26;;;;;;;4.25;2.90;;;;;;;;;;519952;28;1341;-84
2022/05/21 00:18:42;;;;;;;3.60;2.70;;;;;;;;;;519996;28;1332;-85
2022/05/21 00:18:57;;;;;;;4.43;2.80;;;;;;;;;;520000;28;1181;-84
2022/05/21 00:19:13;;;;;;;5.37;2.90;;;;;;;;;;518103;28;1172;-85
2022/05/21 00:19:28;;;;;;;4.85;2.90;;;;;;;;;;518298;28;1201;-85
2022/05/21 00:19:44;;;;;;;4.03;2.97;;;;;;;;;;520274;28;1310;-85
2022/05/21 00:20:00;;;;;;;3.63;2.90;;;;;;;;;;520193;28;936;-85
2022/05/21 00:20:50;;;;;;;3.80;2.97;;;;;;;;;;520338;28;688;-85
2022/05/21 00:21:05;;;;;;;3.40;2.70;;;;;;;;;;521354;28;797;-85
2022/05/21 00:21:21;;;;;;;3.53;2.73;;;;;;;;;;520405;28;1168;-85
2022/05/21 00:21:37;;;;;;;6.13;2.92;;;;;;;;;;521136;28;1306;-85
2022/05/21 00:21:52;;;;;;;6.10;3.13;;;;;;;;;;522547;28;790;-85
2022/05/21 00:22:08;;;;;;;4.63;3.00;;;;;;;;;;522311;28;1151;-85
2022/05/21 00:22:23;;;;;;;6.77;2.93;;;;;;;;;;520261;28;1293;-85
2022/05/21 00:22:38;;;;;;;6.67;3.03;;;;;;;;;;520215;28;1301;-84
2022/05/21 00:22:54;;;;;;;4.00;3.00;;;;;;;;;;518021;28;1418;-85
2022/05/21 00:23:19;;;;;;;4.68;3.00;;;;;;;;;;518034;28;1533;-85
2022/05/21 00:23:36;;;;;;;3.67;2.70;;;;;;;;;;517674;28;1224;-85
2022/05/21 00:23:51;;;;;;;4.15;2.60;;;;;;;;;;518343;28;1052;-85
2022/05/21 00:24:07;;;;;;;4.55;2.75;;;;;;;;;;520070;28;898;-84
2022/05/21 00:24:22;;;;;;;3.42;2.80;;;;;;;;;;520064;28;1204;-85
2022/05/21 00:24:38;;;;;;;3.70;2.80;;;;;;;;;;520214;28;872;-84
2022/05/21 00:24:53;;;;;;;4.70;2.90;;;;;;;;;;522002;28;1000;-85
2022/05/21 00:25:09;;;;;;;5.00;2.93;;;;;;;;;;520086;28;1372;-84
2022/05/21 00:25:25;;;;;;;4.30;3.00;;;;;;;;;;518624;28;1279;-85
2022/05/21 00:25:42;;;;;;;4.38;2.90;;;;;;;;;;520103;28;1276;-85
2022/05/21 00:26:04;;;;;;;3.95;3.00;;;;;;;;;;520343;28;999;-85
2022/05/21 00:26:21;;;;;;;3.10;2.75;;;;;;;;;;521775;28;1032;-85
2022/05/21 00:26:36;;;;;;;2.70;2.50;;;;;;;;;;520299;28;1644;-85
2022/05/21 00:26:51;;;;;;;3.57;2.67;;;;;;;;;;518141;28;1153;-85
2022/05/21 00:27:07;;;;;;;4.23;2.93;;;;;;;;;;520001;28;829;-85
2022/05/21 00:27:22;;;;;;;3.47;2.80;;;;;;;;;;521749;28;986;-85
2022/05/21 00:27:38;;;;;;;3.13;2.80;;;;;;;;;;518576;28;1187;-84
2022/05/21 00:27:53;;;;;;;3.33;2.88;;;;;;;;;;518049;28;909;-85
2022/05/21 00:28:09;;;;;;;4.33;2.80;;;;;;;;;;518381;28;1252;-85
2022/05/21 00:28:25;;;;;;;4.28;2.70;;;;;;;;;;517974;28;1319;-85
2022/05/21 00:28:42;;;;;;;4.35;2.60;;;;;;;;;;516475;28;1153;-84
2022/05/21 00:28:57;;;;;;;4.40;2.78;;;;;;;;;;516056;28;1273;-85
2022/05/21 00:29:13;;;;;;;4.53;2.83;;;;;;;;;;516083;28;1460;-85
2022/05/21 00:29:28;;;;;;;5.25;2.83;;;;;;;;;;518210;28;1304;-84
2022/05/21 00:29:44;;;;;;;5.13;2.87;;;;;;;;;;518380;28;864;-84
2022/05/21 00:29:59;;;;;;;4.50;3.00;;;;;;;;;;518058;28;1561;-84
2022/05/21 00:30:15;;;;;;;4.50;3.00;;;;;;;;;;518114;28;1192;-84
2022/05/21 00:30:32;;;;;;;4.32;2.97;;;;;;;;;;515304;28;1582;-84
2022/05/21 00:30:47;;;;;;;3.47;2.80;;;;;;;;;;514155;28;943;-84
2022/05/21 00:31:04;;;;;;;3.10;2.80;;;;;;;;;;514515;28;1075;-84
2022/05/21 00:31:20;;;;;;;4.53;3.10;;;;;;;;;;516637;28;1367;-84
2022/05/21 00:31:36;;;;;;;4.88;2.95;;;;;;;;;;519328;28;1569;-84
2022/05/21 00:31:51;;;;;;;3.38;2.80;;;;;;;;;;518316;28;1662;-85
2022/05/21 00:32:06;;;;;;;3.30;3.00;;;;;;;;;;519492;28;1426;-84
2022/05/21 00:32:22;;;;;;;3.88;3.00;;;;;;;;;;521028;28;976;-84
2022/05/21 00:32:37;;;;;;;3.70;2.80;;;;;;;;;;522132;28;1331;-84
2022/05/21 00:32:52;;;;;;;2.97;2.70;;;;;;;;;;521990;28;1902;-84
2022/05/21 00:33:08;;;;;;;3.97;2.97;;;;;;;;;;522028;28;1174;-84
2022/05/21 00:33:24;;;;;;;5.03;3.27;;;;;;;;;;520382;28;1168;-85
2022/05/21 00:33:42;;;;;;;4.28;2.95;;;;;;;;;;522171;28;1126;-85
2022/05/21 00:33:57;;;;;;;4.85;3.05;;;;;;;;;;521715;28;1588;-84
2022/05/21 00:34:12;;;;;;;5.33;3.20;;;;;;;;;;518196;28;1196;-85
2022/05/21 00:34:29;;;;;;;4.03;2.90;;;;;;;;;;518325;28;1495;-84
2022/05/21 00:34:44;;;;;;;4.55;2.92;;;;;;;;;;517329;28;1570;-85
2022/05/21 00:34:59;;;;;;;4.13;2.90;;;;;;;;;;518176;28;1181;-85
2022/05/21 00:35:15;;;;;;;4.37;2.73;;;;;;;;;;518097;28;1165;-85
2022/05/21 00:35:30;;;;;;;4.22;2.70;;;;;;;;;;518084;28;1195;-84
2022/05/21 00:35:50;;;;;;;3.83;2.80;;;;;;;;;;517671;28;1594;-85
2022/05/21 00:36:07;;;;;;;4.93;2.92;;;;;;;;;;518042;28;1200;-84
2022/05/21 00:36:22;;;;;;;3.42;3.00;;;;;;;;;;518195;28;1259;-85
2022/05/21 00:36:38;;;;;;;4.53;3.13;;;;;;;;;;518094;28;1311;-85
2022/05/21 00:36:53;;;;;;;5.57;3.10;;;;;;;;;;518018;28;852;-84
2022/05/21 00:37:08;;;;;;;5.13;3.07;;;;;;;;;;515974;28;1137;-85
2022/05/21 00:37:24;;;;;;;4.43;3.10;;;;;;;;;;517099;28;901;-85
2022/05/21 00:37:39;;;;;;;3.60;3.10;;;;;;;;;;515950;28;1396;-84
2022/05/21 00:37:55;;;;;;;3.50;2.90;;;;;;;;;;516194;28;1160;-84
2022/05/21 00:38:11;;;;;;;4.93;2.83;;;;;;;;;;518305;28;955;-85
2022/05/21 00:38:27;;;;;;;5.47;3.30;;;;;;;;;;520305;28;1161;-85
2022/05/21 00:38:42;;;;;;;4.88;3.20;;;;;;;;;;522211;28;892;-84
2022/05/21 00:38:58;;;;;;;4.00;2.83;;;;;;;;;;522647;28;1025;-85
2022/05/21 00:39:13;;;;;;;3.10;2.80;;;;;;;;;;522351;28;1264;-85
2022/05/21 00:39:29;;;;;;;3.73;3.00;;;;;;;;;;522361;28;1140;-85
2022/05/21 00:39:44;;;;;;;4.28;3.20;;;;;;;;;;522945;28;1238;-85
2022/05/21 00:40:00;;;;;;;4.57;3.17;;;;;;;;;;522255;28;1109;-85
2022/05/21 00:40:15;;;;;;;4.57;3.05;;;;;;;;;;520288;28;1160;-85
2022/05/21 00:40:31;;;;;;;4.20;3.10;;;;;;;;;;520230;28;1246;-85
2022/05/21 00:40:47;;;;;;;4.00;3.45;;;;;;;;;;520334;28;1213;-85
2022/05/21 00:41:04;;;;;;;4.38;3.50;;;;;;;;;;520235;28;1429;-84
2022/05/21 00:41:20;;;;;;;5.20;3.60;;;;;;;;;;520373;28;853;-85
2022/05/21 00:41:36;;;;;;;4.70;3.53;;;;;;;;;;520289;28;1334;-85
2022/05/21 00:41:52;;;;;;;6.20;3.40;;;;;;;;;;521952;28;1230;-84
2022/05/21 00:42:07;;;;;;;5.75;3.35;;;;;;;;;;521808;28;957;-85
2022/05/21 00:42:23;;;;;;;3.53;3.13;;;;;;;;;;521715;28;1146;-85
2022/05/21 00:42:43;;;;;;;4.00;3.07;;;;;;;;;;519525;28;1413;-85
2022/05/21 00:42:58;;;;;;;4.10;3.22;;;;;;;;;;519964;28;1327;-84
2022/05/21 00:43:40;;;;;;;5.73;3.30;;;;;;;;;;518570;28;845;-84
2022/05/21 00:43:58;;;;;;;4.43;3.30;;;;;;;;;;522479;28;1662;-87
2022/05/21 00:44:14;;;;;;;4.50;3.15;;;;;;;;;;524462;28;1377;-85
2022/05/21 00:44:29;;;;;;;6.05;3.00;;;;;;;;;;524279;28;1207;-84
2022/05/21 00:44:44;;;;;;;5.73;2.93;;;;;;;;;;522347;28;1557;-84
2022/05/21 00:45:00;;;;;;;3.10;2.80;;;;;;;;;;522364;28;1283;-84
2022/05/21 00:45:16;;;;;;;3.75;2.97;;;;;;;;;;522358;28;1174;-84
2022/05/21 00:45:32;;;;;;;4.35;2.95;;;;;;;;;;520333;28;1239;-85
2022/05/21 00:45:47;;;;;;;4.05;2.85;;;;;;;;;;520260;28;1302;-85
2022/05/21 00:46:06;;;;;;;4.77;3.20;;;;;;;;;;522308;28;1260;-84
2022/05/21 00:46:24;;;;;;;5.40;3.25;;;;;;;;;;522469;28;1087;-85
2022/05/21 00:46:43;;;;;;;4.00;3.00;;;;;;;;;;519722;28;1440;-85
2022/05/21 00:46:59;;;;;;;4.10;2.95;;;;;;;;;;516167;28;1334;-84
2022/05/21 00:47:14;;;;;;;4.45;2.97;;;;;;;;;;516214;28;1386;-84
2022/05/21 00:47:30;;;;;;;4.65;3.00;;;;;;;;;;517939;28;941;-84
2022/05/21 00:47:45;;;;;;;3.87;2.97;;;;;;;;;;516398;28;1219;-85
2022/05/21 00:48:01;;;;;;;3.80;2.83;;;;;;;;;;519937;28;1572;-85
2022/05/21 00:48:16;;;;;;;4.20;2.87;;;;;;;;;;520279;28;1301;-84
2022/05/21 00:48:33;;;;;;;4.77;2.90;;;;;;;;;;521264;28;798;-84
2022/05/21 00:49:11;;;;;;;4.70;2.80;;;;;;;;;;522299;28;908;-84
2022/05/21 00:49:33;;;;;;;4.72;3.00;;;;;;;;;;522245;28;1369;-84
2022/05/21 00:49:48;;;;;;;3.72;2.70;;;;;;;;;;524126;28;1215;-84
2022/05/21 00:50:06;;;;;;;3.88;2.65;;;;;;;;;;522192;28;1211;-84
2022/05/21 00:50:26;;;;;;;4.30;2.90;;;;;;;;;;522116;28;1026;-84
2022/05/21 00:50:42;;;;;;;3.65;2.78;;;;;;;;;;519998;28;1270;-83
2022/05/21 00:50:58;;;;;;;3.42;2.65;;;;;;;;;;519868;28;1252;-84
2022/05/21 00:51:21;;;;;;;3.30;2.80;;;;;;;;;;518480;28;1345;-84
2022/05/21 00:51:41;;;;;;;4.55;3.15;;;;;;;;;;515937;28;1273;-83
2022/05/21 00:52:12;;;;;;;5.78;3.00;;;;;;;;;;515991;28;889;-84
2022/05/21 00:52:27;;;;;;;3.85;3.00;;;;;;;;;;516004;28;1079;-84
2022/05/21 00:52:44;;;;;;;3.10;2.80;;;;;;;;;;517916;28;1934;-84
2022/05/21 00:53:00;;;;;;;3.03;2.72;;;;;;;;;;519841;28;1055;-84
2022/05/21 00:53:15;;;;;;;2.88;2.58;;;;;;;;;;522085;28;1239;-84
2022/05/21 00:53:31;;;;;;;3.70;2.63;;;;;;;;;;523276;28;953;-84
2022/05/21 00:53:49;;;;;;;4.10;2.70;;;;;;;;;;523785;28;1062;-84
2022/05/21 00:54:06;;;;;;;3.70;2.63;;;;;;;;;;519870;28;1423;-85
2022/05/21 00:54:27;;;;;;;3.63;2.80;;;;;;;;;;519062;28;1224;-84
2022/05/21 00:54:57;;;;;;;3.80;2.90;;;;;;;;;;519933;28;972;-84
2022/05/21 00:55:21;;;;;;;4.00;2.90;;;;;;;;;;519807;28;1394;-84
2022/05/21 00:55:37;;;;;;;4.30;2.92;;;;;;;;;;520052;28;1395;-84
2022/05/21 00:55:52;;;;;;;3.92;2.90;;;;;;;;;;520527;28;865;-85
2022/05/21 00:56:10;;;;;;;4.77;2.97;;;;;;;;;;520406;28;1141;-84
2022/05/21 00:56:27;;;;;;;4.85;3.05;;;;;;;;;;522241;28;979;-84
2022/05/21 00:56:48;;;;;;;4.40;2.88;;;;;;;;;;520058;28;1557;-84
2022/05/21 00:57:31;;;;;;;3.15;2.85;;;;;;;;;;517973;28;1252;-84
2022/05/21 00:59:47;;;;;;;3.70;2.95;;;;;;;;;;526233;28;751;-84
2022/05/21 01:00:22;;;;;;;4.65;2.90;;;;;;;;;;526251;28;825;-84
2022/05/21 01:00:38;;;;;;;3.20;2.90;;;;;;;;;;524055;28;1031;-84
2022/05/21 01:00:54;;;;;;;3.22;2.92;;;;;;;;;;524165;28;931;-84
2022/05/21 01:01:12;;;;;;;4.40;2.95;;;;;;;;;;522100;28;1410;-84
2022/05/21 01:01:31;;;;;;;4.88;2.83;;;;;;;;;;520011;28;1259;-85
2022/05/21 01:01:52;;;;;;;4.40;2.97;;;;;;;;;;517922;28;1466;-84
2022/05/21 01:02:08;;;;;;;3.60;2.88;;;;;;;;;;516107;28;1252;-85
2022/05/21 01:02:56;;;;;;;3.33;3.00;;;;;;;;;;516201;28;1307;-84
2022/05/21 01:03:13;;;;;;;5.10;3.03;;;;;;;;;;518170;28;1279;-84
2022/05/21 01:03:30;;;;;;;4.85;3.13;;;;;;;;;;517914;28;1328;-84
2022/05/21 01:03:45;;;;;;;5.50;3.00;;;;;;;;;;517812;28;1212;-86
2022/05/21 01:04:00;;;;;;;4.40;2.90;;;;;;;;;;518274;28;830;-84
2022/05/21 01:04:16;;;;;;;3.33;2.85;;;;;;;;;;519039;28;1023;-84
2022/05/21 01:04:33;;;;;;;4.23;2.80;;;;;;;;;;518231;28;1326;-84
2022/05/21 01:04:50;;;;;;;4.53;2.80;;;;;;;;;;516184;28;1337;-85
2022/05/21 01:05:09;;;;;;;4.25;2.90;;;;;;;;;;516236;28;973;-85
2022/05/21 01:05:26;;;;;;;3.45;2.90;;;;;;;;;;514442;28;1232;-85
2022/05/21 01:05:45;;;;;;;3.95;3.03;;;;;;;;;;515527;28;972;-85
2022/05/21 01:06:05;;;;;;;5.28;3.17;;;;;;;;;;518090;28;1347;-85
2022/05/21 01:06:21;;;;;;;5.18;3.22;;;;;;;;;;518613;28;1464;-84
2022/05/21 01:06:37;;;;;;;5.35;3.20;;;;;;;;;;520253;28;893;-83
2022/05/21 01:06:56;;;;;;;4.85;3.17;;;;;;;;;;520030;28;1212;-84
2022/05/21 01:07:12;;;;;;;5.18;3.20;;;;;;;;;;518045;28;1367;-84
2022/05/21 01:07:29;;;;;;;5.47;3.05;;;;;;;;;;519986;28;878;-84
2022/05/21 01:07:46;;;;;;;4.50;3.10;;;;;;;;;;517788;28;1230;-84
2022/05/21 01:08:01;;;;;;;4.22;3.20;;;;;;;;;;518092;28;1016;-84
2022/05/21 01:08:17;;;;;;;5.77;3.17;;;;;;;;;;518318;28;992;-84
2022/05/21 01:08:32;;;;;;;5.95;3.17;;;;;;;;;;518102;28;1285;-84
2022/05/21 01:08:47;;;;;;;5.50;3.20;;;;;;;;;;521282;28;1269;-84
2022/05/21 01:09:04;;;;;;;4.68;3.10;;;;;;;;;;520925;28;1291;-84
2022/05/21 01:09:20;;;;;;;4.55;3.10;;;;;;;;;;518588;28;1660;-84
2022/05/21 01:09:39;;;;;;;5.40;3.20;;;;;;;;;;518415;28;992;-83
2022/05/21 01:09:57;;;;;;;4.45;2.97;;;;;;;;;;518120;28;932;-84
2022/05/21 01:10:16;;;;;;;3.83;3.00;;;;;;;;;;515985;28;1300;-84
2022/05/21 01:10:41;;;;;;;4.15;2.90;;;;;;;;;;516052;28;846;-82
2022/05/21 01:11:02;;;;;;;4.40;3.00;;;;;;;;;;517058;28;937;-84
2022/05/21 01:11:19;;;;;;;5.75;3.20;;;;;;;;;;516560;28;928;-84
2022/05/21 01:11:36;;;;;;;4.72;3.15;;;;;;;;;;516108;28;1370;-84
2022/05/21 01:11:52;;;;;;;4.40;3.13;;;;;;;;;;517819;28;902;-84
2022/05/21 01:12:08;;;;;;;5.07;3.30;;;;;;;;;;519158;28;1277;-84
2022/05/21 01:12:28;;;;;;;4.78;3.22;;;;;;;;;;519431;28;1419;-84
2022/05/21 01:12:47;;;;;;;5.85;3.40;;;;;;;;;;520294;28;1914;-84
2022/05/21 01:13:08;;;;;;;6.55;3.63;;;;;;;;;;519867;28;1801;-84
2022/05/21 01:13:27;;;;;;;4.22;3.30;;;;;;;;;;519912;28;1255;-84
2022/05/21 01:13:45;;;;;;;4.35;3.33;;;;;;;;;;520042;28;881;-84
2022/05/21 01:14:02;;;;;;;3.83;3.42;;;;;;;;;;520754;28;1642;-85
2022/05/21 01:14:20;;;;;;;3.88;3.40;;;;;;;;;;520151;28;1394;-84
2022/05/21 01:14:36;;;;;;;3.67;3.30;;;;;;;;;;520122;28;1239;-85
2022/05/21 01:14:56;;;;;;;4.07;3.38;;;;;;;;;;518168;28;1259;-84
2022/05/21 01:15:15;;;;;;;4.57;3.40;;;;;;;;;;518119;28;1280;-84
2022/05/21 01:15:37;;;;;;;5.63;3.50;;;;;;;;;;515910;28;1355;-84
2022/05/21 01:15:53;;;;;;;4.88;3.50;;;;;;;;;;515941;28;1213;-84
2022/05/21 01:16:09;;;;;;;3.92;3.42;;;;;;;;;;516456;28;1155;-85
2022/05/21 01:16:25;;;;;;;3.65;3.30;;;;;;;;;;515866;28;1401;-84
2022/05/21 01:16:42;;;;;;;4.22;3.30;;;;;;;;;;516327;28;1311;-84
2022/05/21 01:16:59;;;;;;;5.45;3.63;;;;;;;;;;517912;28;1502;-84
2022/05/21 01:17:19;;;;;;;5.05;3.70;;;;;;;;;;517961;28;1252;-84
2022/05/21 01:17:34;;;;;;;3.92;3.50;;;;;;;;;;518154;28;1240;-85
2022/05/21 01:17:49;;;;;;;4.37;3.63;;;;;;;;;;517956;28;822;-84
2022/05/21 01:18:07;;;;;;;5.65;3.83;;;;;;;;;;520079;28;1624;-84
2022/05/21 01:18:23;;;;;;;6.40;3.80;;;;;;;;;;520116;28;1068;-84
2022/05/21 01:18:38;;;;;;;5.82;3.60;;;;;;;;;;518131;28;1608;-84
2022/05/21 01:18:56;;;;;;;4.45;3.30;;;;;;;;;;519651;28;1000;-85
2022/05/21 01:19:11;;;;;;;4.55;3.42;;;;;;;;;;517930;28;1372;-84
2022/05/21 01:19:27;;;;;;;5.13;3.60;;;;;;;;;;518841;28;1204;-84
2022/05/21 01:20:18;;;;;;;4.85;3.60;;;;;;;;;;519973;28;1532;-84
2022/05/21 01:20:55;;;;;;;5.10;3.70;;;;;;;;;;521287;28;1113;-84
2022/05/21 01:21:10;;;;;;;4.30;3.33;;;;;;;;;;522331;28;952;-85
2022/05/21 01:21:26;;;;;;;4.60;3.30;;;;;;;;;;524170;28;809;-84
2022/05/21 01:21:41;;;;;;;5.00;3.53;;;;;;;;;;522253;28;1548;-84
2022/05/21 01:21:58;;;;;;;4.45;3.70;;;;;;;;;;522165;28;1147;-84
2022/05/21 01:22:14;;;;;;;4.40;3.90;;;;;;;;;;522284;28;1243;-85
2022/05/21 01:22:31;;;;;;;5.23;4.00;;;;;;;;;;520045;28;1280;-84
2022/05/21 01:22:49;;;;;;;4.95;3.88;;;;;;;;;;518150;28;1352;-85
2022/05/21 01:23:05;;;;;;;5.30;3.95;;;;;;;;;;516110;28;1251;-84
2022/05/21 01:23:20;;;;;;;5.27;3.90;;;;;;;;;;516209;28;1193;-85
2022/05/21 01:23:36;;;;;;;4.90;3.80;;;;;;;;;;514196;28;1180;-84
2022/05/21 01:23:51;;;;;;;6.37;3.80;;;;;;;;;;514047;28;1674;-85
2022/05/21 01:24:08;;;;;;;7.10;3.90;;;;;;;;;;514129;28;1009;-85
2022/05/21 01:24:23;;;;;;;5.70;3.90;;;;;;;;;;516164;28;1212;-84
2022/05/21 01:24:39;;;;;;;7.83;4.10;;;;;;;;;;516175;28;965;-85
2022/05/21 01:24:55;;;;;;;6.87;4.00;;;;;;;;;;514067;28;1201;-84
2022/05/21 01:25:12;;;;;;;4.85;3.80;;;;;;;;;;514527;28;881;-84
2022/05/21 01:25:29;;;;;;;4.97;4.05;;;;;;;;;;516813;28;1240;-84
2022/05/21 01:25:46;;;;;;;4.82;4.13;;;;;;;;;;517950;28;1282;-84
2022/05/21 01:26:06;;;;;;;5.85;4.07;;;;;;;;;;518012;28;1265;-84
2022/05/21 01:26:22;;;;;;;4.60;3.80;;;;;;;;;;519879;28;953;-84
2022/05/21 01:26:39;;;;;;;4.40;4.00;;;;;;;;;;518047;28;1229;-84
2022/05/21 01:26:55;;;;;;;4.43;3.95;;;;;;;;;;518085;28;1457;-85
2022/05/21 01:27:10;;;;;;;5.40;4.23;;;;;;;;;;518132;28;806;-84
2022/05/21 01:27:27;;;;;;;6.28;4.50;;;;;;;;;;518028;28;997;-85
2022/05/21 01:27:44;;;;;;;4.93;4.10;;;;;;;;;;518027;28;1390;-84
2022/05/21 01:27:59;;;;;;;5.18;4.10;;;;;;;;;;516746;28;1355;-84
2022/05/21 01:28:19;;;;;;;7.68;4.20;;;;;;;;;;516085;28;1188;-84
2022/05/21 01:28:37;;;;;;;6.38;4.40;;;;;;;;;;515533;28;987;-84
2022/05/21 01:28:52;;;;;;;5.47;4.20;;;;;;;;;;517504;28;1439;-85
2022/05/21 01:29:31;;;;;;;5.60;4.13;;;;;;;;;;518033;28;969;-84
2022/05/21 01:29:50;;;;;;;5.80;4.10;;;;;;;;;;517660;28;1355;-84
2022/05/21 01:30:08;;;;;;;5.10;4.13;;;;;;;;;;517924;28;1372;-84
2022/05/21 01:30:46;;;;;;;4.65;4.10;;;;;;;;;;517735;28;1220;-84
2022/05/21 01:31:02;;;;;;;7.72;4.40;;;;;;;;;;517753;28;1384;-85
2022/05/21 01:31:18;;;;;;;6.93;4.50;;;;;;;;;;515757;28;1550;-84
2022/05/21 01:31:34;;;;;;;5.25;4.35;;;;;;;;;;515981;28;905;-84
2022/05/21 01:31:53;;;;;;;6.73;4.43;;;;;;;;;;515805;28;1173;-84
2022/05/21 01:32:16;;;;;;;7.28;4.47;;;;;;;;;;517799;28;1384;-84
2022/05/21 01:32:31;;;;;;;7.15;4.30;;;;;;;;;;517879;28;1375;-84
2022/05/21 01:32:48;;;;;;;7.13;4.32;;;;;;;;;;517840;28;1922;-84
2022/05/21 01:33:06;;;;;;;5.32;4.00;;;;;;;;;;517945;28;1346;-84
2022/05/21 01:33:24;;;;;;;5.72;4.05;;;;;;;;;;517923;28;865;-84
2022/05/21 01:33:43;;;;;;;6.68;4.20;;;;;;;;;;517860;28;1251;-84
2022/05/21 01:33:59;;;;;;;5.60;4.20;;;;;;;;;;518290;28;1243;-84
2022/05/21 01:34:14;;;;;;;6.10;4.20;;;;;;;;;;519978;28;834;-84
2022/05/21 01:34:29;;;;;;;6.70;4.35;;;;;;;;;;519673;28;1548;-84
2022/05/21 01:34:45;;;;;;;7.60;4.50;;;;;;;;;;519870;28;890;-85
2022/05/21 01:35:00;;;;;;;6.83;4.30;;;;;;;;;;517759;28;1341;-84
2022/05/21 01:35:18;;;;;;;5.27;4.10;;;;;;;;;;517949;28;1287;-85
2022/05/21 01:35:34;;;;;;;5.57;4.25;;;;;;;;;;518240;28;1325;-84
2022/05/21 01:35:50;;;;;;;5.95;4.38;;;;;;;;;;520176;28;1304;-84
2022/05/21 01:36:07;;;;;;;5.05;4.22;;;;;;;;;;518065;28;1400;-84
2022/05/21 01:36:22;;;;;;;4.47;4.07;;;;;;;;;;517975;28;943;-86
2022/05/21 01:36:38;;;;;;;4.50;4.10;;;;;;;;;;516155;28;862;-84
2022/05/21 01:36:53;;;;;;;5.50;4.20;;;;;;;;;;516084;28;1122;-85
2022/05/21 01:37:09;;;;;;;5.82;4.00;;;;;;;;;;517049;28;886;-84
2022/05/21 01:37:24;;;;;;;5.23;4.10;;;;;;;;;;516556;28;1320;-84
2022/05/21 01:37:41;;;;;;;5.25;4.35;;;;;;;;;;518422;28;830;-84
2022/05/21 01:37:56;;;;;;;5.43;4.18;;;;;;;;;;518403;28;1441;-85
2022/05/21 01:38:14;;;;;;;5.50;4.38;;;;;;;;;;520103;28;912;-84
2022/05/21 01:38:30;;;;;;;5.63;4.20;;;;;;;;;;518136;28;1235;-84
2022/05/21 01:38:46;;;;;;;4.60;4.00;;;;;;;;;;516079;28;1315;-85
2022/05/21 01:39:02;;;;;;;4.57;4.00;;;;;;;;;;516017;28;882;-84
2022/05/21 01:39:18;;;;;;;5.27;4.00;;;;;;;;;;516889;28;1599;-84
2022/05/21 01:39:33;;;;;;;5.05;4.10;;;;;;;;;;518022;28;912;-84
2022/05/21 01:39:49;;;;;;;4.77;4.27;;;;;;;;;;518871;28;821;-84
2022/05/21 01:40:07;;;;;;;4.95;4.15;;;;;;;;;;519910;28;1315;-84
2022/05/21 01:40:23;;;;;;;5.35;3.97;;;;;;;;;;520947;28;1328;-84
2022/05/21 01:40:39;;;;;;;5.10;3.95;;;;;;;;;;520968;28;1382;-84
2022/05/21 01:40:55;;;;;;;5.00;4.00;;;;;;;;;;522332;28;968;-85
2022/05/21 01:41:11;;;;;;;5.90;4.07;;;;;;;;;;520062;28;1275;-84
2022/05/21 01:41:26;;;;;;;5.30;4.15;;;;;;;;;;518043;28;1323;-84
2022/05/21 01:41:43;;;;;;;4.87;4.07;;;;;;;;;;518099;28;1150;-84
2022/05/21 01:41:59;;;;;;;5.00;4.00;;;;;;;;;;518197;28;861;-85
2022/05/21 01:42:14;;;;;;;4.60;4.20;;;;;;;;;;518176;28;888;-85
2022/05/21 01:42:31;;;;;;;5.00;4.30;;;;;;;;;;518578;28;1718;-85
2022/05/21 01:44:37;;;;;;;4.88;4.10;;;;;;;;;;520249;28;1360;-84
2022/05/21 01:44:52;;;;;;;5.00;4.30;;;;;;;;;;513755;28;716;-84
2022/05/21 01:45:08;;;;;;;5.05;4.30;;;;;;;;;;513660;28;1303;-84
2022/05/21 01:45:23;;;;;;;5.17;4.00;;;;;;;;;;511547;29;1266;-84
2022/05/21 01:45:38;;;;;;;5.25;4.10;;;;;;;;;;511760;29;972;-84
2022/05/21 01:45:54;;;;;;;5.30;4.10;;;;;;;;;;511810;29;1850;-84
2022/05/21 01:46:10;;;;;;;4.65;4.10;;;;;;;;;;511884;29;1220;-84
2022/05/21 01:46:25;;;;;;;5.18;4.20;;;;;;;;;;510048;29;1243;-85
2022/05/21 01:46:41;;;;;;;6.23;4.13;;;;;;;;;;510075;29;1190;-85
2022/05/21 01:46:56;;;;;;;5.23;3.97;;;;;;;;;;510589;28;1108;-84
2022/05/21 01:47:14;;;;;;;4.72;4.13;;;;;;;;;;516439;28;810;-84
2022/05/21 01:47:31;;;;;;;5.38;4.25;;;;;;;;;;516011;28;1378;-84
2022/05/21 01:47:46;;;;;;;5.13;4.18;;;;;;;;;;515962;28;890;-84
2022/05/21 01:48:03;;;;;;;5.03;4.50;;;;;;;;;;516793;28;1149;-84
2022/05/21 01:48:21;;;;;;;5.65;4.70;;;;;;;;;;518798;28;1247;-84
2022/05/21 01:48:36;;;;;;;5.03;4.43;;;;;;;;;;520827;28;889;-84
2022/05/21 01:48:52;;;;;;;4.93;4.43;;;;;;;;;;521886;28;893;-84
2022/05/21 01:49:08;;;;;;;6.10;4.63;;;;;;;;;;521760;28;1168;-84
2022/05/21 01:49:23;;;;;;;5.80;4.53;;;;;;;;;;519553;28;1129;-85
2022/05/21 01:49:40;;;;;;;4.93;4.43;;;;;;;;;;519687;28;1321;-84
2022/05/21 01:49:55;;;;;;;6.20;4.38;;;;;;;;;;517491;28;1430;-84
2022/05/21 01:50:10;;;;;;;5.93;4.32;;;;;;;;;;515545;28;1205;-83
2022/05/21 01:50:26;;;;;;;5.07;4.27;;;;;;;;;;515559;28;1493;-84
2022/05/21 01:50:41;;;;;;;5.70;4.20;;;;;;;;;;515424;28;1157;-83